Aviation Digital Data Service (ADDS)

Output produced by TAFs form (1833 UTC 31 October 2014)
found at http://aviationweather.gov/adds/tafs/
 
KEGE 311736Z 3118/0118 VRB02KT P6SM SCT200 
     FM312000 24010G18KT P6SM SCT150 BKN200 
     FM312300 24007KT P6SM SCT150 BKN200 
     FM010230 11003KT P6SM BKN200